sensor_id;sensor_type;location;lat;lon;timestamp;P1;durP1;ratioP1;P2;durP2;ratioP2
20725;SDS011;10524;48.132;8.518;2023-05-07T00:00:24;12.15;;;8.35;;
20725;SDS011;10524;48.132;8.518;2023-05-07T00:02:50;9.70;;;7.88;;
20725;SDS011;10524;48.132;8.518;2023-05-07T00:05:16;11.63;;;8.02;;
20725;SDS011;10524;48.132;8.518;2023-05-07T00:07:42;9.20;;;7.70;;
20725;SDS011;10524;48.132;8.518;2023-05-07T00:10:08;12.15;;;8.30;;
20725;SDS011;10524;48.132;8.518;2023-05-07T00:12:35;12.38;;;7.80;;
20725;SDS011;10524;48.132;8.518;2023-05-07T00:15:04;10.32;;;7.75;;
20725;SDS011;10524;48.132;8.518;2023-05-07T00:17:31;10.00;;;7.43;;
20725;SDS011;10524;48.132;8.518;2023-05-07T00:19:58;9.77;;;7.55;;
20725;SDS011;10524;48.132;8.518;2023-05-07T00:22:24;8.40;;;7.50;;
20725;SDS011;10524;48.132;8.518;2023-05-07T00:24:49;10.05;;;7.90;;
20725;SDS011;10524;48.132;8.518;2023-05-07T00:27:15;11.13;;;7.68;;
20725;SDS011;10524;48.132;8.518;2023-05-07T00:29:41;10.07;;;8.30;;
20725;SDS011;10524;48.132;8.518;2023-05-07T00:32:07;10.57;;;8.27;;
20725;SDS011;10524;48.132;8.518;2023-05-07T00:34:33;11.30;;;8.35;;
20725;SDS011;10524;48.132;8.518;2023-05-07T00:37:00;9.50;;;7.60;;
20725;SDS011;10524;48.132;8.518;2023-05-07T00:39:26;10.55;;;8.55;;
20725;SDS011;10524;48.132;8.518;2023-05-07T00:41:52;10.70;;;8.55;;
20725;SDS011;10524;48.132;8.518;2023-05-07T00:44:18;9.10;;;7.53;;
20725;SDS011;10524;48.132;8.518;2023-05-07T00:46:44;9.43;;;7.20;;
20725;SDS011;10524;48.132;8.518;2023-05-07T00:49:13;9.23;;;7.45;;
20725;SDS011;10524;48.132;8.518;2023-05-07T00:51:40;9.57;;;8.18;;
20725;SDS011;10524;48.132;8.518;2023-05-07T00:54:06;9.82;;;7.28;;
20725;SDS011;10524;48.132;8.518;2023-05-07T00:56:32;9.23;;;7.35;;
20725;SDS011;10524;48.132;8.518;2023-05-07T00:59:00;9.52;;;7.53;;
20725;SDS011;10524;48.132;8.518;2023-05-07T01:01:26;8.80;;;7.32;;
20725;SDS011;10524;48.132;8.518;2023-05-07T01:03:52;11.13;;;7.38;;
20725;SDS011;10524;48.132;8.518;2023-05-07T01:06:18;8.75;;;7.85;;
20725;SDS011;10524;48.132;8.518;2023-05-07T01:08:46;9.27;;;6.82;;
20725;SDS011;10524;48.132;8.518;2023-05-07T01:11:15;10.20;;;7.43;;
20725;SDS011;10524;48.132;8.518;2023-05-07T01:13:41;11.38;;;7.82;;
20725;SDS011;10524;48.132;8.518;2023-05-07T01:16:08;12.35;;;7.70;;
20725;SDS011;10524;48.132;8.518;2023-05-07T01:18:34;11.15;;;7.72;;
20725;SDS011;10524;48.132;8.518;2023-05-07T01:21:00;10.88;;;7.00;;
20725;SDS011;10524;48.132;8.518;2023-05-07T01:23:29;9.57;;;7.40;;
20725;SDS011;10524;48.132;8.518;2023-05-07T01:25:55;7.82;;;7.00;;
20725;SDS011;10524;48.132;8.518;2023-05-07T01:28:21;9.80;;;7.35;;
20725;SDS011;10524;48.132;8.518;2023-05-07T01:30:52;8.18;;;7.32;;
20725;SDS011;10524;48.132;8.518;2023-05-07T01:33:21;11.05;;;7.13;;
20725;SDS011;10524;48.132;8.518;2023-05-07T01:35:50;7.82;;;6.95;;
20725;SDS011;10524;48.132;8.518;2023-05-07T01:38:18;10.63;;;7.60;;
20725;SDS011;10524;48.132;8.518;2023-05-07T01:40:45;11.15;;;7.28;;
20725;SDS011;10524;48.132;8.518;2023-05-07T01:43:11;10.27;;;6.80;;
20725;SDS011;10524;48.132;8.518;2023-05-07T01:45:37;9.38;;;6.97;;
20725;SDS011;10524;48.132;8.518;2023-05-07T01:48:05;7.88;;;7.07;;
20725;SDS011;10524;48.132;8.518;2023-05-07T01:50:32;8.95;;;6.95;;
20725;SDS011;10524;48.132;8.518;2023-05-07T01:52:58;8.85;;;6.90;;
20725;SDS011;10524;48.132;8.518;2023-05-07T01:55:24;12.20;;;7.35;;
20725;SDS011;10524;48.132;8.518;2023-05-07T01:57:50;7.50;;;6.55;;
20725;SDS011;10524;48.132;8.518;2023-05-07T02:00:16;9.38;;;7.68;;
20725;SDS011;10524;48.132;8.518;2023-05-07T02:02:42;7.93;;;7.07;;
20725;SDS011;10524;48.132;8.518;2023-05-07T02:05:08;11.88;;;7.68;;
20725;SDS011;10524;48.132;8.518;2023-05-07T02:07:35;11.52;;;7.90;;
20725;SDS011;10524;48.132;8.518;2023-05-07T02:10:00;10.77;;;7.80;;
20725;SDS011;10524;48.132;8.518;2023-05-07T02:12:26;9.30;;;7.32;;
20725;SDS011;10524;48.132;8.518;2023-05-07T02:14:52;8.75;;;6.80;;
20725;SDS011;10524;48.132;8.518;2023-05-07T02:17:18;7.75;;;6.95;;
20725;SDS011;10524;48.132;8.518;2023-05-07T02:19:43;8.50;;;7.47;;
20725;SDS011;10524;48.132;8.518;2023-05-07T02:22:09;9.95;;;8.10;;
20725;SDS011;10524;48.132;8.518;2023-05-07T02:24:35;11.43;;;7.40;;
20725;SDS011;10524;48.132;8.518;2023-05-07T02:27:01;10.63;;;7.80;;
20725;SDS011;10524;48.132;8.518;2023-05-07T02:29:28;9.48;;;8.05;;
20725;SDS011;10524;48.132;8.518;2023-05-07T02:31:54;8.68;;;7.47;;
20725;SDS011;10524;48.132;8.518;2023-05-07T02:34:20;9.40;;;7.88;;
20725;SDS011;10524;48.132;8.518;2023-05-07T02:36:46;9.60;;;8.10;;
20725;SDS011;10524;48.132;8.518;2023-05-07T02:39:12;11.52;;;7.80;;
20725;SDS011;10524;48.132;8.518;2023-05-07T02:41:39;10.75;;;7.43;;
20725;SDS011;10524;48.132;8.518;2023-05-07T02:44:04;10.60;;;7.22;;
20725;SDS011;10524;48.132;8.518;2023-05-07T02:46:31;11.00;;;7.03;;
20725;SDS011;10524;48.132;8.518;2023-05-07T02:48:56;12.25;;;7.43;;
20725;SDS011;10524;48.132;8.518;2023-05-07T02:51:22;8.82;;;7.22;;
20725;SDS011;10524;48.132;8.518;2023-05-07T02:53:48;10.48;;;7.82;;
20725;SDS011;10524;48.132;8.518;2023-05-07T02:56:14;9.27;;;8.07;;
20725;SDS011;10524;48.132;8.518;2023-05-07T02:58:40;10.98;;;8.20;;
20725;SDS011;10524;48.132;8.518;2023-05-07T03:01:07;8.98;;;7.25;;
20725;SDS011;10524;48.132;8.518;2023-05-07T03:03:33;8.20;;;6.93;;
20725;SDS011;10524;48.132;8.518;2023-05-07T03:06:00;10.40;;;7.60;;
20725;SDS011;10524;48.132;8.518;2023-05-07T03:08:26;11.18;;;7.93;;
20725;SDS011;10524;48.132;8.518;2023-05-07T03:10:52;9.48;;;7.70;;
20725;SDS011;10524;48.132;8.518;2023-05-07T03:13:18;9.38;;;7.55;;
20725;SDS011;10524;48.132;8.518;2023-05-07T03:15:43;11.18;;;7.90;;
20725;SDS011;10524;48.132;8.518;2023-05-07T03:18:09;9.73;;;7.55;;
20725;SDS011;10524;48.132;8.518;2023-05-07T03:20:35;9.32;;;7.35;;
20725;SDS011;10524;48.132;8.518;2023-05-07T03:23:01;8.98;;;7.10;;
20725;SDS011;10524;48.132;8.518;2023-05-07T03:25:27;9.77;;;7.25;;
20725;SDS011;10524;48.132;8.518;2023-05-07T03:27:55;9.23;;;6.85;;
20725;SDS011;10524;48.132;8.518;2023-05-07T03:30:21;10.45;;;6.68;;
20725;SDS011;10524;48.132;8.518;2023-05-07T03:32:47;10.57;;;7.20;;
20725;SDS011;10524;48.132;8.518;2023-05-07T03:35:12;10.85;;;6.85;;
20725;SDS011;10524;48.132;8.518;2023-05-07T03:37:39;10.20;;;7.45;;
20725;SDS011;10524;48.132;8.518;2023-05-07T03:40:05;12.55;;;7.68;;
20725;SDS011;10524;48.132;8.518;2023-05-07T03:42:32;10.85;;;7.88;;
20725;SDS011;10524;48.132;8.518;2023-05-07T03:44:58;10.43;;;8.23;;
20725;SDS011;10524;48.132;8.518;2023-05-07T03:47:24;10.50;;;7.95;;
20725;SDS011;10524;48.132;8.518;2023-05-07T03:49:49;9.65;;;7.97;;
20725;SDS011;10524;48.132;8.518;2023-05-07T03:52:17;9.88;;;8.13;;
20725;SDS011;10524;48.132;8.518;2023-05-07T03:54:48;11.40;;;7.82;;
20725;SDS011;10524;48.132;8.518;2023-05-07T03:57:14;10.40;;;7.93;;
20725;SDS011;10524;48.132;8.518;2023-05-07T03:59:40;8.85;;;7.65;;
20725;SDS011;10524;48.132;8.518;2023-05-07T04:02:06;10.40;;;7.80;;
20725;SDS011;10524;48.132;8.518;2023-05-07T04:04:31;9.50;;;8.18;;
20725;SDS011;10524;48.132;8.518;2023-05-07T04:06:58;10.20;;;7.53;;
20725;SDS011;10524;48.132;8.518;2023-05-07T04:09:24;10.55;;;7.32;;
20725;SDS011;10524;48.132;8.518;2023-05-07T04:11:50;11.07;;;9.00;;
20725;SDS011;10524;48.132;8.518;2023-05-07T04:14:16;9.30;;;8.35;;
20725;SDS011;10524;48.132;8.518;2023-05-07T04:16:42;10.48;;;8.50;;
20725;SDS011;10524;48.132;8.518;2023-05-07T04:19:07;9.60;;;8.43;;
20725;SDS011;10524;48.132;8.518;2023-05-07T04:21:36;10.48;;;8.15;;
20725;SDS011;10524;48.132;8.518;2023-05-07T04:24:04;9.75;;;7.88;;
20725;SDS011;10524;48.132;8.518;2023-05-07T04:26:30;10.27;;;7.10;;
20725;SDS011;10524;48.132;8.518;2023-05-07T04:28:56;10.20;;;6.80;;
20725;SDS011;10524;48.132;8.518;2023-05-07T04:31:24;8.45;;;6.60;;
20725;SDS011;10524;48.132;8.518;2023-05-07T04:33:49;7.15;;;6.28;;
20725;SDS011;10524;48.132;8.518;2023-05-07T04:36:16;10.05;;;6.82;;
20725;SDS011;10524;48.132;8.518;2023-05-07T04:38:42;7.38;;;5.95;;
20725;SDS011;10524;48.132;8.518;2023-05-07T04:41:08;8.65;;;6.05;;
20725;SDS011;10524;48.132;8.518;2023-05-07T04:43:34;9.40;;;6.03;;
20725;SDS011;10524;48.132;8.518;2023-05-07T04:46:00;7.50;;;5.80;;
20725;SDS011;10524;48.132;8.518;2023-05-07T04:48:27;7.25;;;5.97;;
20725;SDS011;10524;48.132;8.518;2023-05-07T04:50:54;9.10;;;5.53;;
20725;SDS011;10524;48.132;8.518;2023-05-07T04:53:19;7.03;;;5.90;;
20725;SDS011;10524;48.132;8.518;2023-05-07T04:55:46;7.68;;;5.35;;
20725;SDS011;10524;48.132;8.518;2023-05-07T04:58:12;7.18;;;4.90;;
20725;SDS011;10524;48.132;8.518;2023-05-07T05:00:38;8.80;;;4.78;;
20725;SDS011;10524;48.132;8.518;2023-05-07T05:03:06;5.65;;;4.75;;
20725;SDS011;10524;48.132;8.518;2023-05-07T05:05:32;5.43;;;4.00;;
20725;SDS011;10524;48.132;8.518;2023-05-07T05:07:58;5.43;;;3.75;;
20725;SDS011;10524;48.132;8.518;2023-05-07T05:10:24;4.40;;;3.83;;
20725;SDS011;10524;48.132;8.518;2023-05-07T05:12:50;3.80;;;3.45;;
20725;SDS011;10524;48.132;8.518;2023-05-07T05:15:16;3.30;;;3.00;;
20725;SDS011;10524;48.132;8.518;2023-05-07T05:17:41;3.65;;;2.63;;
20725;SDS011;10524;48.132;8.518;2023-05-07T05:20:07;5.18;;;2.72;;
20725;SDS011;10524;48.132;8.518;2023-05-07T05:22:35;5.20;;;2.70;;
20725;SDS011;10524;48.132;8.518;2023-05-07T05:25:01;5.95;;;2.72;;
20725;SDS011;10524;48.132;8.518;2023-05-07T05:27:27;2.72;;;2.40;;
20725;SDS011;10524;48.132;8.518;2023-05-07T05:29:54;2.70;;;2.50;;
20725;SDS011;10524;48.132;8.518;2023-05-07T05:32:19;3.00;;;2.05;;
20725;SDS011;10524;48.132;8.518;2023-05-07T05:34:45;2.92;;;2.20;;
20725;SDS011;10524;48.132;8.518;2023-05-07T05:37:11;3.63;;;1.95;;
20725;SDS011;10524;48.132;8.518;2023-05-07T05:39:37;3.78;;;2.00;;
20725;SDS011;10524;48.132;8.518;2023-05-07T05:42:03;3.15;;;1.90;;
20725;SDS011;10524;48.132;8.518;2023-05-07T05:44:29;2.03;;;1.80;;
20725;SDS011;10524;48.132;8.518;2023-05-07T05:46:55;2.03;;;1.83;;
20725;SDS011;10524;48.132;8.518;2023-05-07T05:49:22;4.68;;;2.10;;
20725;SDS011;10524;48.132;8.518;2023-05-07T05:51:48;2.90;;;1.92;;
20725;SDS011;10524;48.132;8.518;2023-05-07T05:54:14;2.42;;;1.70;;
20725;SDS011;10524;48.132;8.518;2023-05-07T05:56:41;4.00;;;2.08;;
20725;SDS011;10524;48.132;8.518;2023-05-07T05:59:07;3.05;;;2.20;;
20725;SDS011;10524;48.132;8.518;2023-05-07T06:01:33;2.42;;;2.10;;
20725;SDS011;10524;48.132;8.518;2023-05-07T06:03:59;3.33;;;2.45;;
20725;SDS011;10524;48.132;8.518;2023-05-07T06:06:25;3.00;;;2.33;;
20725;SDS011;10524;48.132;8.518;2023-05-07T06:08:51;3.17;;;2.35;;
20725;SDS011;10524;48.132;8.518;2023-05-07T06:11:17;5.32;;;2.58;;
20725;SDS011;10524;48.132;8.518;2023-05-07T06:13:45;2.63;;;2.08;;
20725;SDS011;10524;48.132;8.518;2023-05-07T06:16:10;2.75;;;2.40;;
20725;SDS011;10524;48.132;8.518;2023-05-07T06:18:36;2.28;;;2.08;;
20725;SDS011;10524;48.132;8.518;2023-05-07T06:21:02;3.00;;;2.30;;
20725;SDS011;10524;48.132;8.518;2023-05-07T06:23:28;2.28;;;2.08;;
20725;SDS011;10524;48.132;8.518;2023-05-07T06:25:54;2.80;;;2.20;;
20725;SDS011;10524;48.132;8.518;2023-05-07T06:28:20;3.53;;;1.83;;
20725;SDS011;10524;48.132;8.518;2023-05-07T06:30:46;2.70;;;1.90;;
20725;SDS011;10524;48.132;8.518;2023-05-07T06:33:12;4.25;;;2.20;;
20725;SDS011;10524;48.132;8.518;2023-05-07T06:35:38;3.22;;;2.10;;
20725;SDS011;10524;48.132;8.518;2023-05-07T06:38:04;2.78;;;2.28;;
20725;SDS011;10524;48.132;8.518;2023-05-07T06:40:30;4.97;;;2.10;;
20725;SDS011;10524;48.132;8.518;2023-05-07T06:42:56;2.22;;;1.90;;
20725;SDS011;10524;48.132;8.518;2023-05-07T06:45:21;2.65;;;2.22;;
20725;SDS011;10524;48.132;8.518;2023-05-07T06:47:47;3.53;;;2.00;;
20725;SDS011;10524;48.132;8.518;2023-05-07T06:50:13;2.55;;;2.30;;
20725;SDS011;10524;48.132;8.518;2023-05-07T06:52:41;2.35;;;2.10;;
20725;SDS011;10524;48.132;8.518;2023-05-07T06:55:07;2.92;;;2.00;;
20725;SDS011;10524;48.132;8.518;2023-05-07T06:57:34;3.13;;;2.38;;
20725;SDS011;10524;48.132;8.518;2023-05-07T06:59:59;3.72;;;2.50;;
20725;SDS011;10524;48.132;8.518;2023-05-07T07:02:25;3.42;;;2.08;;
20725;SDS011;10524;48.132;8.518;2023-05-07T07:04:51;2.55;;;1.92;;
20725;SDS011;10524;48.132;8.518;2023-05-07T07:07:17;3.25;;;1.90;;
20725;SDS011;10524;48.132;8.518;2023-05-07T07:09:42;3.03;;;2.30;;
20725;SDS011;10524;48.132;8.518;2023-05-07T07:12:08;3.30;;;2.67;;
20725;SDS011;10524;48.132;8.518;2023-05-07T07:14:34;4.55;;;2.78;;
20725;SDS011;10524;48.132;8.518;2023-05-07T07:17:00;3.58;;;2.53;;
20725;SDS011;10524;48.132;8.518;2023-05-07T07:19:25;5.07;;;2.80;;
20725;SDS011;10524;48.132;8.518;2023-05-07T07:21:51;4.10;;;2.83;;
20725;SDS011;10524;48.132;8.518;2023-05-07T07:24:17;4.03;;;2.95;;
20725;SDS011;10524;48.132;8.518;2023-05-07T07:26:44;3.47;;;2.90;;
20725;SDS011;10524;48.132;8.518;2023-05-07T07:29:10;3.38;;;2.60;;
20725;SDS011;10524;48.132;8.518;2023-05-07T07:31:35;3.20;;;2.53;;
20725;SDS011;10524;48.132;8.518;2023-05-07T07:34:01;3.08;;;2.55;;
20725;SDS011;10524;48.132;8.518;2023-05-07T07:36:27;4.45;;;2.67;;
20725;SDS011;10524;48.132;8.518;2023-05-07T07:38:53;3.40;;;2.85;;
20725;SDS011;10524;48.132;8.518;2023-05-07T07:41:19;2.95;;;2.40;;
20725;SDS011;10524;48.132;8.518;2023-05-07T07:43:46;3.88;;;2.95;;
20725;SDS011;10524;48.132;8.518;2023-05-07T07:46:11;5.38;;;2.70;;
20725;SDS011;10524;48.132;8.518;2023-05-07T07:48:37;4.32;;;2.50;;
20725;SDS011;10524;48.132;8.518;2023-05-07T07:51:03;4.22;;;2.45;;
20725;SDS011;10524;48.132;8.518;2023-05-07T07:53:29;5.32;;;2.53;;
20725;SDS011;10524;48.132;8.518;2023-05-07T07:55:55;5.68;;;2.85;;
20725;SDS011;10524;48.132;8.518;2023-05-07T07:58:21;3.25;;;2.78;;
20725;SDS011;10524;48.132;8.518;2023-05-07T08:00:47;3.53;;;2.80;;
20725;SDS011;10524;48.132;8.518;2023-05-07T08:03:13;3.63;;;2.75;;
20725;SDS011;10524;48.132;8.518;2023-05-07T08:05:41;4.05;;;2.55;;
20725;SDS011;10524;48.132;8.518;2023-05-07T08:08:07;3.92;;;2.50;;
20725;SDS011;10524;48.132;8.518;2023-05-07T08:10:33;3.78;;;2.45;;
20725;SDS011;10524;48.132;8.518;2023-05-07T08:13:04;2.97;;;2.20;;
20725;SDS011;10524;48.132;8.518;2023-05-07T08:15:30;4.32;;;2.30;;
20725;SDS011;10524;48.132;8.518;2023-05-07T08:17:56;3.55;;;2.28;;
20725;SDS011;10524;48.132;8.518;2023-05-07T08:20:23;2.63;;;2.13;;
20725;SDS011;10524;48.132;8.518;2023-05-07T08:22:49;4.10;;;2.20;;
20725;SDS011;10524;48.132;8.518;2023-05-07T08:25:14;3.30;;;2.20;;
20725;SDS011;10524;48.132;8.518;2023-05-07T08:27:40;4.10;;;2.30;;
20725;SDS011;10524;48.132;8.518;2023-05-07T08:30:06;4.85;;;2.10;;
20725;SDS011;10524;48.132;8.518;2023-05-07T08:32:32;3.95;;;2.40;;
20725;SDS011;10524;48.132;8.518;2023-05-07T08:34:58;2.45;;;2.08;;
20725;SDS011;10524;48.132;8.518;2023-05-07T08:37:24;2.63;;;1.95;;
20725;SDS011;10524;48.132;8.518;2023-05-07T08:39:50;3.70;;;1.90;;
20725;SDS011;10524;48.132;8.518;2023-05-07T08:42:16;4.47;;;2.17;;
20725;SDS011;10524;48.132;8.518;2023-05-07T08:44:43;3.13;;;2.00;;
20725;SDS011;10524;48.132;8.518;2023-05-07T08:47:14;2.22;;;2.00;;
20725;SDS011;10524;48.132;8.518;2023-05-07T08:49:40;3.03;;;2.13;;
20725;SDS011;10524;48.132;8.518;2023-05-07T08:52:06;3.78;;;2.28;;
20725;SDS011;10524;48.132;8.518;2023-05-07T08:54:32;3.38;;;2.08;;
20725;SDS011;10524;48.132;8.518;2023-05-07T08:56:58;2.10;;;1.90;;
20725;SDS011;10524;48.132;8.518;2023-05-07T08:59:25;2.35;;;1.70;;
20725;SDS011;10524;48.132;8.518;2023-05-07T09:01:51;2.80;;;1.75;;
20725;SDS011;10524;48.132;8.518;2023-05-07T09:04:17;2.42;;;1.83;;
20725;SDS011;10524;48.132;8.518;2023-05-07T09:06:42;2.85;;;1.90;;
20725;SDS011;10524;48.132;8.518;2023-05-07T09:09:08;3.08;;;1.80;;
20725;SDS011;10524;48.132;8.518;2023-05-07T09:11:34;2.88;;;2.03;;
20725;SDS011;10524;48.132;8.518;2023-05-07T09:14:00;2.45;;;1.88;;
20725;SDS011;10524;48.132;8.518;2023-05-07T09:16:27;3.95;;;1.80;;
20725;SDS011;10524;48.132;8.518;2023-05-07T09:18:57;3.42;;;2.35;;
20725;SDS011;10524;48.132;8.518;2023-05-07T09:21:23;3.10;;;2.40;;
20725;SDS011;10524;48.132;8.518;2023-05-07T09:23:53;3.28;;;2.20;;
20725;SDS011;10524;48.132;8.518;2023-05-07T09:26:23;2.78;;;2.00;;
20725;SDS011;10524;48.132;8.518;2023-05-07T09:28:49;2.13;;;1.77;;
20725;SDS011;10524;48.132;8.518;2023-05-07T09:31:15;2.67;;;1.95;;
20725;SDS011;10524;48.132;8.518;2023-05-07T09:33:41;3.05;;;1.60;;
20725;SDS011;10524;48.132;8.518;2023-05-07T09:36:08;4.32;;;1.63;;
20725;SDS011;10524;48.132;8.518;2023-05-07T09:38:35;3.83;;;1.88;;
20725;SDS011;10524;48.132;8.518;2023-05-07T09:41:09;4.18;;;2.03;;
20725;SDS011;10524;48.132;8.518;2023-05-07T09:43:36;1.83;;;1.73;;
20725;SDS011;10524;48.132;8.518;2023-05-07T09:46:07;2.72;;;2.10;;
20725;SDS011;10524;48.132;8.518;2023-05-07T09:48:38;2.50;;;2.15;;
20725;SDS011;10524;48.132;8.518;2023-05-07T09:54:03;3.25;;;2.10;;
20725;SDS011;10524;48.132;8.518;2023-05-07T09:56:34;2.10;;;1.80;;
20725;SDS011;10524;48.132;8.518;2023-05-07T09:59:03;3.40;;;1.98;;
20725;SDS011;10524;48.132;8.518;2023-05-07T10:01:31;2.85;;;1.80;;
20725;SDS011;10524;48.132;8.518;2023-05-07T10:03:58;2.45;;;2.10;;
20725;SDS011;10524;48.132;8.518;2023-05-07T10:06:24;3.15;;;1.88;;
20725;SDS011;10524;48.132;8.518;2023-05-07T10:08:51;3.13;;;2.15;;
20725;SDS011;10524;48.132;8.518;2023-05-07T10:11:18;3.17;;;2.15;;
20725;SDS011;10524;48.132;8.518;2023-05-07T10:13:44;2.53;;;2.13;;
20725;SDS011;10524;48.132;8.518;2023-05-07T10:16:12;2.63;;;2.35;;
20725;SDS011;10524;48.132;8.518;2023-05-07T10:18:40;3.03;;;2.15;;
20725;SDS011;10524;48.132;8.518;2023-05-07T10:21:18;5.68;;;2.25;;
20725;SDS011;10524;48.132;8.518;2023-05-07T10:23:47;3.45;;;2.28;;
20725;SDS011;10524;48.132;8.518;2023-05-07T10:26:15;2.97;;;1.90;;
20725;SDS011;10524;48.132;8.518;2023-05-07T10:28:45;2.63;;;1.90;;
20725;SDS011;10524;48.132;8.518;2023-05-07T10:33:45;3.28;;;2.13;;
20725;SDS011;10524;48.132;8.518;2023-05-07T10:36:13;2.85;;;2.10;;
20725;SDS011;10524;48.132;8.518;2023-05-07T10:38:39;2.78;;;2.10;;
20725;SDS011;10524;48.132;8.518;2023-05-07T10:41:05;2.50;;;2.22;;
20725;SDS011;10524;48.132;8.518;2023-05-07T10:43:38;3.30;;;2.35;;
20725;SDS011;10524;48.132;8.518;2023-05-07T10:46:09;4.43;;;2.30;;
20725;SDS011;10524;48.132;8.518;2023-05-07T10:51:26;3.80;;;2.30;;
20725;SDS011;10524;48.132;8.518;2023-05-07T11:04:25;4.57;;;2.45;;
20725;SDS011;10524;48.132;8.518;2023-05-07T11:15:02;6.68;;;3.13;;
20725;SDS011;10524;48.132;8.518;2023-05-07T11:17:56;4.78;;;3.50;;
20725;SDS011;10524;48.132;8.518;2023-05-07T11:26:06;5.15;;;4.25;;
20725;SDS011;10524;48.132;8.518;2023-05-07T11:28:38;5.00;;;4.50;;
20725;SDS011;10524;48.132;8.518;2023-05-07T11:31:07;7.38;;;3.92;;
20725;SDS011;10524;48.132;8.518;2023-05-07T11:33:34;5.47;;;4.28;;
20725;SDS011;10524;48.132;8.518;2023-05-07T11:36:04;4.80;;;4.30;;
20725;SDS011;10524;48.132;8.518;2023-05-07T11:38:30;5.57;;;4.40;;
20725;SDS011;10524;48.132;8.518;2023-05-07T11:40:59;6.97;;;4.50;;
20725;SDS011;10524;48.132;8.518;2023-05-07T11:43:26;5.78;;;4.70;;
20725;SDS011;10524;48.132;8.518;2023-05-07T11:45:52;6.47;;;4.45;;
20725;SDS011;10524;48.132;8.518;2023-05-07T11:48:18;4.47;;;3.50;;
20725;SDS011;10524;48.132;8.518;2023-05-07T11:50:52;5.68;;;3.40;;
20725;SDS011;10524;48.132;8.518;2023-05-07T11:53:24;5.18;;;3.15;;
20725;SDS011;10524;48.132;8.518;2023-05-07T11:55:52;6.40;;;3.20;;
20725;SDS011;10524;48.132;8.518;2023-05-07T11:58:24;4.35;;;3.50;;
20725;SDS011;10524;48.132;8.518;2023-05-07T12:00:53;4.07;;;2.90;;
20725;SDS011;10524;48.132;8.518;2023-05-07T12:03:20;4.75;;;3.00;;
20725;SDS011;10524;48.132;8.518;2023-05-07T12:05:46;5.53;;;2.95;;
20725;SDS011;10524;48.132;8.518;2023-05-07T12:08:15;3.67;;;2.85;;
20725;SDS011;10524;48.132;8.518;2023-05-07T12:10:42;4.03;;;2.55;;
20725;SDS011;10524;48.132;8.518;2023-05-07T12:13:19;3.33;;;2.53;;
20725;SDS011;10524;48.132;8.518;2023-05-07T12:15:52;2.90;;;2.05;;
20725;SDS011;10524;48.132;8.518;2023-05-07T12:18:19;4.78;;;2.15;;
20725;SDS011;10524;48.132;8.518;2023-05-07T12:20:46;3.42;;;2.20;;
20725;SDS011;10524;48.132;8.518;2023-05-07T12:23:13;3.03;;;2.00;;
20725;SDS011;10524;48.132;8.518;2023-05-07T12:25:40;2.80;;;2.22;;
20725;SDS011;10524;48.132;8.518;2023-05-07T12:28:17;2.67;;;1.85;;
20725;SDS011;10524;48.132;8.518;2023-05-07T12:30:44;4.80;;;3.25;;
20725;SDS011;10524;48.132;8.518;2023-05-07T12:33:15;8.70;;;3.63;;
20725;SDS011;10524;48.132;8.518;2023-05-07T12:35:42;4.72;;;3.42;;
20725;SDS011;10524;48.132;8.518;2023-05-07T12:38:12;5.68;;;3.13;;
20725;SDS011;10524;48.132;8.518;2023-05-07T12:40:40;6.47;;;3.70;;
20725;SDS011;10524;48.132;8.518;2023-05-07T12:43:06;5.72;;;3.28;;
20725;SDS011;10524;48.132;8.518;2023-05-07T12:45:38;5.32;;;3.38;;
20725;SDS011;10524;48.132;8.518;2023-05-07T12:48:06;5.20;;;3.30;;
20725;SDS011;10524;48.132;8.518;2023-05-07T12:50:34;3.92;;;2.90;;
20725;SDS011;10524;48.132;8.518;2023-05-07T12:53:00;4.53;;;2.92;;
20725;SDS011;10524;48.132;8.518;2023-05-07T12:55:30;3.83;;;2.70;;
20725;SDS011;10524;48.132;8.518;2023-05-07T12:57:57;3.50;;;2.80;;
20725;SDS011;10524;48.132;8.518;2023-05-07T13:00:34;5.28;;;3.03;;
20725;SDS011;10524;48.132;8.518;2023-05-07T13:03:03;3.78;;;2.70;;
20725;SDS011;10524;48.132;8.518;2023-05-07T13:05:30;6.07;;;2.67;;
20725;SDS011;10524;48.132;8.518;2023-05-07T13:07:57;4.70;;;3.00;;
20725;SDS011;10524;48.132;8.518;2023-05-07T13:10:23;7.22;;;3.33;;
20725;SDS011;10524;48.132;8.518;2023-05-07T13:12:50;8.80;;;5.57;;
20725;SDS011;10524;48.132;8.518;2023-05-07T13:15:16;6.75;;;4.88;;
20725;SDS011;10524;48.132;8.518;2023-05-07T13:17:44;4.53;;;3.42;;
20725;SDS011;10524;48.132;8.518;2023-05-07T13:20:10;3.55;;;2.95;;
20725;SDS011;10524;48.132;8.518;2023-05-07T13:22:37;5.22;;;2.72;;
20725;SDS011;10524;48.132;8.518;2023-05-07T13:25:04;2.85;;;2.08;;
20725;SDS011;10524;48.132;8.518;2023-05-07T13:27:30;2.40;;;1.75;;
20725;SDS011;10524;48.132;8.518;2023-05-07T13:29:56;2.47;;;2.00;;
20725;SDS011;10524;48.132;8.518;2023-05-07T13:32:23;2.58;;;1.88;;
20725;SDS011;10524;48.132;8.518;2023-05-07T13:34:50;3.67;;;2.10;;
20725;SDS011;10524;48.132;8.518;2023-05-07T13:37:22;5.97;;;2.28;;
20725;SDS011;10524;48.132;8.518;2023-05-07T13:39:49;3.45;;;1.98;;
20725;SDS011;10524;48.132;8.518;2023-05-07T13:42:15;2.33;;;1.67;;
20725;SDS011;10524;48.132;8.518;2023-05-07T13:44:41;5.22;;;2.22;;
20725;SDS011;10524;48.132;8.518;2023-05-07T13:47:08;3.42;;;1.77;;
20725;SDS011;10524;48.132;8.518;2023-05-07T13:49:34;2.42;;;1.88;;
20725;SDS011;10524;48.132;8.518;2023-05-07T13:52:00;2.40;;;1.70;;
20725;SDS011;10524;48.132;8.518;2023-05-07T13:54:26;3.30;;;1.88;;
20725;SDS011;10524;48.132;8.518;2023-05-07T13:56:51;1.83;;;1.60;;
20725;SDS011;10524;48.132;8.518;2023-05-07T13:59:17;3.08;;;1.80;;
20725;SDS011;10524;48.132;8.518;2023-05-07T14:01:43;3.38;;;1.90;;
20725;SDS011;10524;48.132;8.518;2023-05-07T14:04:08;2.92;;;1.55;;
20725;SDS011;10524;48.132;8.518;2023-05-07T14:06:34;1.75;;;1.50;;
20725;SDS011;10524;48.132;8.518;2023-05-07T14:09:00;2.13;;;1.52;;
20725;SDS011;10524;48.132;8.518;2023-05-07T14:11:26;2.33;;;1.40;;
20725;SDS011;10524;48.132;8.518;2023-05-07T14:13:51;2.10;;;1.40;;
20725;SDS011;10524;48.132;8.518;2023-05-07T14:16:17;2.63;;;1.42;;
20725;SDS011;10524;48.132;8.518;2023-05-07T14:18:43;2.00;;;1.40;;
20725;SDS011;10524;48.132;8.518;2023-05-07T14:21:09;2.38;;;1.10;;
20725;SDS011;10524;48.132;8.518;2023-05-07T14:23:34;2.22;;;1.50;;
20725;SDS011;10524;48.132;8.518;2023-05-07T14:26:01;1.95;;;1.20;;
20725;SDS011;10524;48.132;8.518;2023-05-07T14:28:26;1.52;;;1.20;;
20725;SDS011;10524;48.132;8.518;2023-05-07T14:30:52;3.33;;;1.30;;
20725;SDS011;10524;48.132;8.518;2023-05-07T14:33:18;2.53;;;1.30;;
20725;SDS011;10524;48.132;8.518;2023-05-07T14:35:44;2.13;;;1.65;;
20725;SDS011;10524;48.132;8.518;2023-05-07T14:38:13;2.35;;;1.60;;
20725;SDS011;10524;48.132;8.518;2023-05-07T14:40:39;3.10;;;1.50;;
20725;SDS011;10524;48.132;8.518;2023-05-07T14:43:05;5.57;;;1.60;;
20725;SDS011;10524;48.132;8.518;2023-05-07T14:45:31;2.17;;;1.40;;
20725;SDS011;10524;48.132;8.518;2023-05-07T14:47:57;3.00;;;1.50;;
20725;SDS011;10524;48.132;8.518;2023-05-07T14:50:22;1.65;;;1.50;;
20725;SDS011;10524;48.132;8.518;2023-05-07T14:52:48;2.85;;;1.80;;
20725;SDS011;10524;48.132;8.518;2023-05-07T14:55:14;1.92;;;1.58;;
20725;SDS011;10524;48.132;8.518;2023-05-07T14:57:40;2.55;;;2.10;;
20725;SDS011;10524;48.132;8.518;2023-05-07T15:00:06;2.90;;;1.90;;
20725;SDS011;10524;48.132;8.518;2023-05-07T15:02:33;2.90;;;2.15;;
20725;SDS011;10524;48.132;8.518;2023-05-07T15:04:59;3.45;;;2.00;;
20725;SDS011;10524;48.132;8.518;2023-05-07T15:07:25;2.08;;;1.80;;
20725;SDS011;10524;48.132;8.518;2023-05-07T15:09:51;2.42;;;2.22;;
20725;SDS011;10524;48.132;8.518;2023-05-07T15:12:16;2.38;;;2.10;;
20725;SDS011;10524;48.132;8.518;2023-05-07T15:14:42;2.13;;;1.80;;